CheckWX is a tool to help pilots better visualize weather data.  It is not intended as a substitute for an official pre-flight weather briefing.

10:39:04 UTC

ENRY METAR
Moss , Rygge Airport
Rygge, Norway
Current

19 mins ago

ENRY 171020Z 35014KT 9999 FEW047 12/00 Q1003 NOSIG
Observed
Sep-17 @ 10:20 UTC
Wind
  • 350° at 14 KTS
Visibility
10,000+ meters
Flight Rules
VFR
Cloud Levels
  • Few at 4,700' AGL
Temperature
12°C / 54°F
Dewpoint
C / 32°F
Humidity
44%
Altimeter
29.62" Hg
Pressure
1002.92 hPa
Previous

49 mins ago

ENRY 170950Z 35011KT CAVOK 11/00 Q1003 NOSIG
Observed
Sep-17 @ 09:50 UTC
Wind
  • 350° at 11 KTS
Visibility
10,000+ meters
Flight Rules
VFR
Cloud Levels
  • Clear skies
Temperature
11°C / 52°F
Dewpoint
C / 32°F
Humidity
47%
Altimeter
29.62" Hg
Pressure
1002.92 hPa
Previous

1 hour ago

ENRY 170920Z 34013KT CAVOK 10/00 Q1003 NOSIG
Observed
Sep-17 @ 09:20 UTC
Wind
  • 340° at 13 KTS
Visibility
10,000+ meters
Flight Rules
VFR
Cloud Levels
  • Clear skies
Temperature
10°C / 50°F
Dewpoint
C / 32°F
Humidity
50%
Altimeter
29.62" Hg
Pressure
1002.92 hPa